Time;durP1;ratioP1;P1;durP2;ratioP2;P2;SDS_P1;SDS_P2;PMS_P1;PMS_P2;Temp;Humidity;BMP_temperature;BMP_pressure;BME280_temperature;BME280_humidity;BME280_pressure;Samples;Min_cycle;Max_cycle;Signal;HPM_P1;HPM_P2
2021/06/12 00:00:11;;;;;;;5.57;4.00;;;19.30;99.90;;;;;;5056927;28;20235;-83
2021/06/12 00:02:37;;;;;;;4.47;3.80;;;19.30;99.90;;;;;;5073804;28;20209;-84
2021/06/12 00:05:06;;;;;;;6.50;3.80;;;19.30;99.90;;;;;;5056411;28;20181;-84
2021/06/12 00:07:32;;;;;;;4.43;3.63;;;19.30;99.90;;;;;;5057095;28;20181;-83
2021/06/12 00:09:58;;;;;;;6.07;4.03;;;19.20;99.90;;;;;;5056560;28;20177;-82
2021/06/12 00:12:23;;;;;;;5.13;4.00;;;19.30;99.90;;;;;;5073131;28;20206;-83
2021/06/12 00:14:49;;;;;;;6.10;3.93;;;19.30;99.90;;;;;;5073252;28;20204;-83
2021/06/12 00:17:14;;;;;;;6.50;3.70;;;19.30;99.90;;;;;;5056658;28;20322;-82
2021/06/12 00:19:40;;;;;;;6.07;4.30;;;19.30;99.90;;;;;;5073042;28;20178;-82
2021/06/12 00:22:05;;;;;;;9.67;4.37;;;19.40;99.90;;;;;;5055635;28;20209;-82
2021/06/12 00:24:31;;;;;;;8.47;4.23;;;19.40;99.90;;;;;;5056234;28;20205;-81
2021/06/12 00:26:57;;;;;;;5.20;4.13;;;19.30;99.90;;;;;;5056252;28;20184;-81
2021/06/12 00:29:22;;;;;;;8.10;4.20;;;19.30;99.90;;;;;;5056153;28;20272;-81
2021/06/12 00:31:48;;;;;;;6.10;4.30;;;19.20;99.90;;;;;;5072940;28;20173;-83
2021/06/12 00:34:13;;;;;;;7.20;4.60;;;19.20;99.90;;;;;;5056108;28;20200;-84
2021/06/12 00:36:39;;;;;;;6.40;4.50;;;19.30;99.90;;;;;;5056237;28;20626;-81
2021/06/12 00:39:05;;;;;;;6.00;4.53;;;19.30;99.90;;;;;;5056040;28;20205;-82
2021/06/12 00:41:30;;;;;;;7.50;5.03;;;19.20;99.90;;;;;;5072961;28;20174;-81
2021/06/12 00:43:56;;;;;;;6.20;4.50;;;19.20;99.90;;;;;;5072884;28;20730;-84
2021/06/12 00:46:21;;;;;;;10.67;5.00;;;19.20;99.90;;;;;;5073091;28;20705;-84
2021/06/12 00:48:47;;;;;;;7.27;4.77;;;19.10;99.90;;;;;;5072975;28;20551;-82
2021/06/12 00:51:12;;;;;;;7.90;4.80;;;19.10;99.90;;;;;;5056242;28;20180;-81
2021/06/12 00:53:41;;;;;;;6.47;4.80;;;19.10;99.90;;;;;;5056274;28;20266;-83
2021/06/12 00:56:07;;;;;;;7.47;4.87;;;19.20;99.90;;;;;;5056416;28;20265;-82
2021/06/12 00:58:33;;;;;;;6.03;4.97;;;19.10;99.90;;;;;;5072887;28;20215;-82
2021/06/12 01:01:00;;;;;;;6.43;4.63;;;19.10;99.90;;;;;;5072846;28;20181;-82
2021/06/12 01:03:26;;;;;;;6.80;4.90;;;19.00;99.90;;;;;;5056075;28;20227;-81
2021/06/12 01:05:52;;;;;;;5.43;4.63;;;18.90;99.90;;;;;;5072876;28;20624;-83
2021/06/12 01:08:17;;;;;;;7.80;5.30;;;18.90;99.90;;;;;;5072501;28;20180;-82
2021/06/12 01:10:43;;;;;;;6.43;4.83;;;18.80;99.90;;;;;;5056039;28;20188;-82
2021/06/12 01:13:31;;;;;;;5.53;4.63;;;18.80;99.90;;;;;;5055558;28;20300;-82
2021/06/12 01:16:09;;;;;;;7.53;4.73;;;18.80;99.90;;;;;;5071591;28;20178;-84
2021/06/12 01:18:36;;;;;;;8.37;5.27;;;18.80;99.90;;;;;;5071108;28;20244;-84
2021/06/12 01:21:30;;;;;;;5.63;4.60;;;18.80;99.90;;;;;;5055082;28;20180;-85
2021/06/12 01:24:33;;;;;;;6.67;4.73;;;18.80;99.90;;;;;;5051584;28;20208;-84
2021/06/12 01:27:30;;;;;;;9.77;5.63;;;18.80;99.90;;;;;;5072843;28;20173;-84
2021/06/12 01:30:01;;;;;;;6.00;4.83;;;18.80;99.90;;;;;;5054719;28;20178;-84
2021/06/12 01:32:27;;;;;;;7.43;5.03;;;18.80;99.90;;;;;;5070539;28;20237;-85
2021/06/12 01:34:54;;;;;;;7.40;5.40;;;18.80;99.90;;;;;;5071830;28;20193;-85
2021/06/12 01:37:19;;;;;;;6.23;4.77;;;18.80;99.90;;;;;;5072446;28;20191;-83
2021/06/12 01:39:45;;;;;;;8.37;5.27;;;18.90;99.90;;;;;;5055028;28;20639;-83
2021/06/12 01:42:12;;;;;;;9.53;6.07;;;18.80;99.90;;;;;;5054748;28;20173;-83
2021/06/12 01:44:38;;;;;;;10.07;6.27;;;18.80;99.90;;;;;;5055244;28;20180;-84
2021/06/12 01:47:04;;;;;;;11.97;5.97;;;18.80;99.90;;;;;;5071548;28;20651;-85
2021/06/12 01:49:30;;;;;;;8.60;5.90;;;18.80;99.90;;;;;;5054947;28;20251;-84
2021/06/12 01:51:56;;;;;;;8.90;5.83;;;18.90;99.90;;;;;;5071725;28;20178;-85
2021/06/12 01:54:21;;;;;;;10.73;5.93;;;18.80;99.90;;;;;;5054839;28;20201;-85
2021/06/12 01:56:47;;;;;;;9.10;5.70;;;18.80;99.90;;;;;;5054938;28;20263;-85
2021/06/12 01:59:12;;;;;;;10.90;6.07;;;18.90;99.90;;;;;;5054773;28;20183;-83
2021/06/12 02:01:40;;;;;;;11.80;5.83;;;18.90;99.90;;;;;;5071422;28;20180;-83
2021/06/12 02:04:05;;;;;;;8.70;6.00;;;18.90;99.90;;;;;;5054833;28;20212;-85
2021/06/12 02:06:31;;;;;;;11.37;6.40;;;18.80;99.90;;;;;;5054400;28;20181;-84
2021/06/12 02:08:56;;;;;;;9.90;6.50;;;18.90;99.90;;;;;;5071537;28;20178;-84
2021/06/12 02:11:25;;;;;;;12.57;6.83;;;18.90;99.90;;;;;;5071079;28;20205;-85
2021/06/12 02:13:51;;;;;;;9.50;6.20;;;18.90;99.90;;;;;;5054300;28;20221;-84
2021/06/12 02:16:16;;;;;;;10.30;6.27;;;18.90;99.90;;;;;;5071355;28;20245;-84
2021/06/12 02:18:44;;;;;;;12.17;7.23;;;18.90;99.90;;;;;;5055169;28;20178;-83
2021/06/12 02:21:10;;;;;;;7.97;6.13;;;18.90;99.90;;;;;;5054727;28;20193;-85
2021/06/12 02:23:36;;;;;;;10.07;6.60;;;18.80;99.90;;;;;;5054985;28;20264;-84
2021/06/12 02:26:01;;;;;;;11.43;7.10;;;18.80;99.90;;;;;;5071306;28;20197;-84
2021/06/12 02:28:34;;;;;;;11.90;7.10;;;18.80;99.90;;;;;;5054643;28;20649;-84
2021/06/12 02:31:17;;;;;;;10.63;7.40;;;18.70;99.90;;;;;;5078006;28;20241;-84
2021/06/12 02:33:44;;;;;;;12.37;7.10;;;18.70;99.90;;;;;;5093467;28;20216;-84
2021/06/12 02:36:09;;;;;;;11.17;7.17;;;18.70;99.90;;;;;;5074908;28;20188;-83
2021/06/12 02:38:35;;;;;;;13.13;7.53;;;18.70;99.90;;;;;;5074727;28;20181;-83
2021/06/12 02:41:01;;;;;;;12.20;6.93;;;18.70;99.90;;;;;;5074680;28;20181;-84
2021/06/12 02:43:27;;;;;;;16.90;7.33;;;18.60;99.90;;;;;;5074521;28;20204;-85
2021/06/12 02:45:52;;;;;;;13.47;8.00;;;18.50;99.90;;;;;;5095238;28;20542;-86
2021/06/12 02:48:18;;;;;;;11.43;7.63;;;18.40;99.90;;;;;;5078466;28;20177;-83
2021/06/12 02:50:48;;;;;;;13.20;7.90;;;18.40;99.90;;;;;;5078137;28;20185;-84
2021/06/12 02:53:14;;;;;;;15.60;7.43;;;18.60;99.90;;;;;;5078797;28;20216;-83
2021/06/12 02:55:45;;;;;;;11.03;7.40;;;18.50;99.90;;;;;;5095396;28;20181;-84
2021/06/12 02:58:10;;;;;;;12.83;7.70;;;18.50;99.90;;;;;;5078116;28;20187;-84
2021/06/12 03:00:37;;;;;;;11.23;7.37;;;18.50;99.90;;;;;;5094741;28;20264;-84
2021/06/12 03:03:03;;;;;;;10.17;7.23;;;18.40;99.90;;;;;;5095220;28;20723;-84
2021/06/12 03:05:32;;;;;;;11.40;7.13;;;18.40;99.90;;;;;;5078195;28;20193;-84
2021/06/12 03:07:58;;;;;;;11.67;7.33;;;18.40;99.90;;;;;;5078507;28;20177;-84
2021/06/12 03:10:29;;;;;;;10.93;7.20;;;18.40;99.90;;;;;;5077738;28;20188;-85
2021/06/12 03:12:55;;;;;;;12.00;7.10;;;18.30;99.90;;;;;;5077464;28;20244;-84
2021/06/12 03:15:20;;;;;;;10.13;7.00;;;18.30;99.90;;;;;;5077946;28;20674;-84
2021/06/12 03:17:46;;;;;;;10.10;6.67;;;18.30;99.90;;;;;;5077512;28;20268;-83
2021/06/12 03:20:13;;;;;;;14.53;7.00;;;18.20;99.90;;;;;;5094376;28;20188;-84
2021/06/12 03:22:39;;;;;;;9.83;6.77;;;18.20;99.90;;;;;;5078360;28;20201;-85
2021/06/12 03:25:05;;;;;;;10.93;6.23;;;18.30;99.90;;;;;;5094808;28;20172;-83
2021/06/12 03:27:31;;;;;;;11.27;7.27;;;18.30;99.90;;;;;;5078905;28;20547;-84
2021/06/12 03:29:56;;;;;;;10.17;6.90;;;18.40;99.90;;;;;;5079844;28;20279;-83
2021/06/12 03:32:22;;;;;;;16.23;7.30;;;18.30;99.90;;;;;;5078577;28;20566;-83
2021/06/12 03:34:48;;;;;;;11.57;6.93;;;18.40;99.90;;;;;;5078607;28;20176;-84
2021/06/12 03:37:13;;;;;;;11.00;6.63;;;18.40;99.90;;;;;;5095972;28;20200;-84
2021/06/12 03:39:39;;;;;;;8.87;6.13;;;18.40;99.90;;;;;;5095648;28;20173;-83
2021/06/12 03:42:05;;;;;;;11.33;6.47;;;18.30;99.90;;;;;;5095300;28;20642;-84
2021/06/12 03:44:31;;;;;;;9.53;6.50;;;18.30;99.90;;;;;;5078523;28;20197;-84
2021/06/12 03:46:56;;;;;;;13.87;6.80;;;18.40;99.90;;;;;;5095729;28;20172;-84
2021/06/12 03:49:22;;;;;;;11.40;6.07;;;18.40;99.90;;;;;;5078291;28;20176;-84
2021/06/12 03:51:47;;;;;;;9.40;5.70;;;18.40;99.90;;;;;;5094850;28;20617;-84
2021/06/12 03:54:13;;;;;;;8.93;6.10;;;18.40;99.90;;;;;;5094671;28;20208;-84
2021/06/12 03:56:39;;;;;;;10.87;6.23;;;18.40;99.90;;;;;;5077131;28;20176;-83
2021/06/12 03:59:06;;;;;;;9.33;6.03;;;18.40;99.90;;;;;;5094620;28;20169;-84
2021/06/12 04:01:31;;;;;;;10.23;5.77;;;18.40;99.90;;;;;;5077316;28;20184;-84
2021/06/12 04:03:57;;;;;;;9.37;5.97;;;18.40;99.90;;;;;;5094781;28;20193;-83
2021/06/12 04:06:22;;;;;;;9.70;6.13;;;18.40;99.90;;;;;;5077987;28;20291;-84
2021/06/12 04:08:48;;;;;;;10.93;6.23;;;18.50;99.90;;;;;;5078299;28;20208;-85
2021/06/12 04:11:14;;;;;;;8.50;5.90;;;18.50;99.90;;;;;;5077915;28;20599;-84
2021/06/12 04:13:40;;;;;;;8.50;5.63;;;18.50;99.90;;;;;;5094933;28;20537;-86
2021/06/12 04:16:05;;;;;;;9.33;6.20;;;18.60;99.90;;;;;;5078011;28;20553;-86
2021/06/12 04:18:31;;;;;;;8.97;5.40;;;18.50;99.90;;;;;;5078036;28;20177;-86
2021/06/12 04:20:56;;;;;;;9.87;5.83;;;18.60;99.90;;;;;;5077884;28;20173;-86
2021/06/12 04:23:22;;;;;;;12.97;6.87;;;18.60;99.90;;;;;;5113053;28;20200;-88
2021/06/12 04:25:48;;;;;;;10.47;6.17;;;18.50;99.90;;;;;;5080339;28;20264;-87
2021/06/12 04:28:13;;;;;;;11.77;6.77;;;18.60;99.90;;;;;;5097534;28;20180;-87
2021/06/12 04:30:39;;;;;;;11.20;6.60;;;18.50;99.90;;;;;;5096103;28;20237;-87
2021/06/12 04:33:05;;;;;;;11.43;6.10;;;18.50;99.90;;;;;;5078592;28;20217;-87
2021/06/12 04:35:31;;;;;;;11.80;6.33;;;18.50;99.90;;;;;;5094576;28;20184;-87
2021/06/12 04:38:00;;;;;;;10.70;6.53;;;18.60;99.90;;;;;;5077447;28;20198;-88
2021/06/12 04:40:30;;;;;;;9.37;5.87;;;18.60;99.90;;;;;;5077475;28;20180;-88
2021/06/12 04:42:55;;;;;;;8.13;5.10;;;18.70;99.90;;;;;;5076722;28;20292;-87
2021/06/12 04:45:21;;;;;;;8.57;5.90;;;18.80;99.90;;;;;;5076905;28;20217;-87
2021/06/12 04:47:46;;;;;;;7.67;5.90;;;18.80;99.90;;;;;;5093362;28;20199;-87
2021/06/12 04:50:12;;;;;;;8.13;5.63;;;18.80;99.90;;;;;;5075690;28;20176;-87
2021/06/12 04:52:38;;;;;;;8.10;5.40;;;18.90;99.90;;;;;;5093106;28;20209;-87
2021/06/12 04:55:05;;;;;;;10.37;5.70;;;19.00;99.90;;;;;;5076383;28;20638;-87
2021/06/12 04:57:31;;;;;;;7.80;5.17;;;18.90;99.90;;;;;;5092770;28;20260;-88
2021/06/12 04:59:56;;;;;;;8.50;5.57;;;19.00;99.90;;;;;;5075297;28;20682;-87
2021/06/12 05:02:22;;;;;;;6.93;4.93;;;19.10;99.90;;;;;;5075501;28;20176;-88
2021/06/12 05:04:47;;;;;;;9.23;5.20;;;19.10;99.90;;;;;;5075914;28;20181;-87
2021/06/12 05:07:13;;;;;;;9.40;5.80;;;19.10;99.90;;;;;;5092606;28;20177;-86
2021/06/12 05:09:38;;;;;;;8.33;5.10;;;19.10;99.90;;;;;;5093657;28;20674;-87
2021/06/12 05:12:04;;;;;;;9.23;5.03;;;19.10;99.90;;;;;;5076167;28;20731;-87
2021/06/12 05:14:30;;;;;;;10.03;5.73;;;19.10;99.90;;;;;;5075504;28;20220;-86
2021/06/12 05:16:57;;;;;;;7.47;4.90;;;19.10;99.90;;;;;;5075776;28;20173;-87
2021/06/12 05:19:22;;;;;;;8.20;5.03;;;19.20;99.90;;;;;;5075681;28;20226;-87
2021/06/12 05:21:48;;;;;;;7.53;4.83;;;19.20;99.90;;;;;;5076158;28;20172;-88
2021/06/12 05:24:14;;;;;;;7.23;4.57;;;19.20;99.90;;;;;;5092000;28;20197;-87
2021/06/12 05:26:40;;;;;;;8.50;4.87;;;19.30;99.90;;;;;;5092159;28;20286;-87
2021/06/12 05:29:05;;;;;;;5.50;4.40;;;19.20;99.90;;;;;;5075937;28;20791;-87
2021/06/12 05:31:32;;;;;;;9.90;4.33;;;19.20;99.90;;;;;;5075624;28;20533;-88
2021/06/12 05:33:58;;;;;;;7.17;4.63;;;19.20;99.90;;;;;;5075216;28;20291;-87
2021/06/12 05:36:23;;;;;;;6.90;4.43;;;19.20;99.90;;;;;;5075569;28;20169;-87
2021/06/12 05:38:49;;;;;;;8.17;4.87;;;19.20;99.90;;;;;;5092100;28;20172;-85
2021/06/12 05:41:14;;;;;;;6.83;4.67;;;19.20;99.90;;;;;;5092346;28;20200;-87
2021/06/12 05:43:40;;;;;;;7.53;4.17;;;19.30;99.90;;;;;;5075228;28;20204;-88
2021/06/12 05:46:05;;;;;;;6.17;4.10;;;19.20;99.90;;;;;;5072327;28;20180;-87
2021/06/12 05:48:31;;;;;;;5.10;3.97;;;19.20;99.90;;;;;;5088860;28;20187;-87
2021/06/12 05:50:56;;;;;;;8.50;4.33;;;19.20;99.90;;;;;;5093254;28;20681;-88
2021/06/12 05:53:22;;;;;;;6.53;3.80;;;19.20;99.90;;;;;;5092051;28;20702;-87
2021/06/12 05:55:47;;;;;;;7.87;4.60;;;19.10;99.90;;;;;;5073487;28;20632;-89
2021/06/12 05:58:13;;;;;;;6.07;3.70;;;19.20;99.90;;;;;;5087936;28;20715;-88
2021/06/12 06:00:39;;;;;;;6.10;4.03;;;19.10;99.90;;;;;;5074188;28;20173;-89
2021/06/12 06:03:04;;;;;;;8.13;4.20;;;19.10;99.90;;;;;;5073735;28;20698;-90
2021/06/12 06:05:30;;;;;;;5.27;3.30;;;19.00;99.90;;;;;;5073380;28;20647;-89
2021/06/12 06:07:55;;;;;;;6.50;4.00;;;19.10;99.90;;;;;;5073332;28;20186;-82
2021/06/12 06:10:21;;;;;;;7.67;4.13;;;19.00;99.90;;;;;;5072324;28;20173;-82
2021/06/12 06:12:47;;;;;;;6.17;3.37;;;18.90;99.90;;;;;;5069765;28;20232;-81
2021/06/12 06:15:13;;;;;;;5.43;3.53;;;19.00;99.90;;;;;;5054412;28;20170;-80
2021/06/12 06:17:42;;;;;;;6.20;4.00;;;18.80;99.90;;;;;;5071273;28;20655;-82
2021/06/12 06:20:08;;;;;;;5.93;3.77;;;18.90;99.90;;;;;;5066206;28;20180;-80
2021/06/12 06:22:34;;;;;;;4.57;3.90;;;18.90;99.90;;;;;;5097168;28;20222;-81
2021/06/12 06:24:59;;;;;;;6.63;4.07;;;18.90;99.90;;;;;;5098743;28;20181;-82
2021/06/12 06:27:25;;;;;;;7.50;4.03;;;18.90;99.90;;;;;;5095095;28;20260;-81
2021/06/12 06:29:51;;;;;;;4.93;3.37;;;18.90;99.90;;;;;;5077543;28;20180;-83
2021/06/12 06:32:17;;;;;;;6.63;3.90;;;18.90;99.90;;;;;;5075217;28;20190;-79
2021/06/12 06:34:43;;;;;;;6.83;4.00;;;18.80;99.90;;;;;;5066056;28;20226;-79
2021/06/12 06:37:08;;;;;;;5.07;3.90;;;18.80;99.90;;;;;;5079472;28;20168;-79
2021/06/12 06:39:34;;;;;;;6.33;4.03;;;18.80;99.90;;;;;;5092393;28;20256;-80
2021/06/12 06:41:59;;;;;;;6.63;4.13;;;18.80;99.90;;;;;;5092512;28;20185;-81
2021/06/12 06:44:25;;;;;;;7.00;4.00;;;18.80;99.90;;;;;;5093524;28;20193;-79
2021/06/12 06:46:50;;;;;;;6.63;4.40;;;18.90;99.90;;;;;;5072469;28;20184;-78
2021/06/12 06:49:16;;;;;;;5.23;4.13;;;18.80;99.90;;;;;;5069259;28;20257;-80
2021/06/12 06:51:42;;;;;;;6.77;4.80;;;18.80;99.90;;;;;;5075095;28;20170;-80
2021/06/12 06:54:07;;;;;;;6.13;4.40;;;18.70;99.90;;;;;;5061622;28;20213;-81
2021/06/12 06:56:33;;;;;;;7.07;5.03;;;18.80;99.90;;;;;;5060183;28;20169;-82
2021/06/12 06:58:58;;;;;;;8.90;4.63;;;18.80;99.90;;;;;;5068711;28;20185;-82
2021/06/12 07:01:24;;;;;;;8.10;4.63;;;18.80;99.90;;;;;;5080176;28;20181;-83
2021/06/12 07:03:50;;;;;;;11.43;5.47;;;18.70;99.90;;;;;;5079964;28;20215;-83
2021/06/12 07:06:15;;;;;;;8.00;5.10;;;18.70;99.90;;;;;;5080252;28;20173;-83
2021/06/12 07:08:44;;;;;;;6.87;5.17;;;18.70;99.90;;;;;;5081251;28;20204;-85
2021/06/12 07:11:09;;;;;;;6.87;5.27;;;18.70;99.90;;;;;;5079881;28;20271;-82
2021/06/12 07:13:35;;;;;;;7.67;5.83;;;18.70;99.90;;;;;;5079226;28;20240;-83
2021/06/12 07:16:01;;;;;;;7.60;5.57;;;18.60;99.90;;;;;;5079008;28;20177;-82
2021/06/12 07:18:26;;;;;;;9.33;5.53;;;18.60;99.90;;;;;;5078362;28;20175;-82
2021/06/12 07:20:52;;;;;;;8.93;5.80;;;18.70;99.90;;;;;;5077870;28;20169;-82
2021/06/12 07:23:17;;;;;;;8.77;5.83;;;18.70;99.90;;;;;;5077552;28;20211;-83
2021/06/12 07:25:46;;;;;;;9.57;6.50;;;18.80;99.90;;;;;;5094925;28;20176;-83
2021/06/12 07:28:12;;;;;;;9.93;5.87;;;18.80;99.90;;;;;;5076206;28;20172;-83
2021/06/12 07:30:41;;;;;;;8.47;5.70;;;18.80;99.90;;;;;;5072316;28;20178;-86
2021/06/12 07:33:07;;;;;;;10.40;6.10;;;18.90;99.90;;;;;;5093639;28;20645;-85
2021/06/12 07:35:34;;;;;;;7.97;6.07;;;19.00;99.90;;;;;;5077553;28;20254;-85
2021/06/12 07:37:59;;;;;;;8.93;5.93;;;19.00;99.90;;;;;;5075500;28;20205;-88
2021/06/12 07:40:25;;;;;;;7.63;5.70;;;19.00;99.90;;;;;;5096920;28;20173;-86
2021/06/12 07:42:50;;;;;;;10.93;6.77;;;19.00;99.90;;;;;;5092816;28;20212;-84
2021/06/12 07:45:16;;;;;;;7.57;6.17;;;19.00;99.90;;;;;;5074876;28;20182;-84
2021/06/12 07:47:42;;;;;;;10.77;6.00;;;19.00;99.90;;;;;;5075749;28;20197;-86
2021/06/12 07:50:07;;;;;;;8.73;6.13;;;19.10;99.90;;;;;;5057083;28;20234;-86
2021/06/12 07:52:33;;;;;;;8.63;6.67;;;19.20;99.90;;;;;;5075033;28;20209;-81
2021/06/12 07:54:58;;;;;;;8.10;6.50;;;19.30;99.90;;;;;;5057386;28;20657;-81
2021/06/12 07:57:24;;;;;;;8.90;6.50;;;19.40;99.90;;;;;;5074802;28;20193;-82
2021/06/12 07:59:50;;;;;;;11.80;7.40;;;19.50;99.90;;;;;;5058139;28;20216;-85
2021/06/12 08:02:15;;;;;;;10.13;7.13;;;19.50;99.90;;;;;;5075329;28;20193;-83
2021/06/12 08:04:41;;;;;;;10.73;7.23;;;19.80;99.90;;;;;;5058377;28;20173;-82
2021/06/12 08:07:07;;;;;;;9.67;6.70;;;20.10;99.90;;;;;;5057553;28;20246;-85
2021/06/12 08:09:33;;;;;;;7.80;6.70;;;20.40;99.90;;;;;;5056589;28;20169;-82
2021/06/12 08:11:59;;;;;;;9.57;6.90;;;20.80;99.90;;;;;;5073192;28;20169;-80
2021/06/12 08:14:24;;;;;;;10.97;7.10;;;20.90;99.90;;;;;;5072841;28;20213;-82
2021/06/12 08:16:50;;;;;;;7.93;6.60;;;21.00;99.90;;;;;;5091303;28;20769;-81
2021/06/12 08:19:15;;;;;;;7.43;6.60;;;21.10;99.90;;;;;;5093296;28;20701;-83
2021/06/12 08:21:43;;;;;;;8.63;7.07;;;21.00;99.90;;;;;;5093518;28;20579;-84
2021/06/12 08:24:09;;;;;;;11.10;7.13;;;20.90;99.90;;;;;;5076913;28;20197;-83
2021/06/12 08:26:35;;;;;;;8.40;6.20;;;20.90;99.90;;;;;;5076510;28;20180;-84
2021/06/12 08:29:00;;;;;;;7.67;6.13;;;20.90;99.90;;;;;;5093053;28;20550;-82
2021/06/12 08:31:26;;;;;;;9.87;6.30;;;21.00;99.90;;;;;;5075988;28;20177;-81
2021/06/12 08:33:51;;;;;;;7.57;6.30;;;21.00;99.90;;;;;;5076026;28;20589;-83
2021/06/12 08:36:17;;;;;;;9.03;6.23;;;21.00;99.90;;;;;;5093818;28;20189;-83
2021/06/12 08:38:43;;;;;;;13.20;6.67;;;21.10;99.90;;;;;;5093237;28;20647;-83
2021/06/12 08:41:09;;;;;;;9.07;6.10;;;21.20;99.90;;;;;;5075717;28;20173;-81
2021/06/12 08:43:34;;;;;;;9.97;6.73;;;21.10;99.90;;;;;;5092056;28;20196;-84
2021/06/12 08:46:00;;;;;;;8.10;5.73;;;21.20;99.90;;;;;;5092423;28;20181;-81
2021/06/12 08:48:26;;;;;;;10.50;6.30;;;21.30;99.90;;;;;;5092259;28;20169;-78
2021/06/12 08:50:53;;;;;;;6.83;5.50;;;21.50;99.90;;;;;;5072516;28;20184;-82
2021/06/12 08:53:18;;;;;;;8.03;5.67;;;21.80;99.90;;;;;;5074732;28;20897;-82
2021/06/12 08:55:45;;;;;;;9.23;5.80;;;21.90;99.90;;;;;;5092056;28;20226;-81
2021/06/12 08:58:10;;;;;;;7.20;5.73;;;21.90;99.90;;;;;;5091876;28;20647;-81
2021/06/12 09:00:36;;;;;;;10.23;5.93;;;21.90;99.90;;;;;;5092471;28;20187;-82
2021/06/12 09:03:07;;;;;;;8.60;5.53;;;22.00;99.90;;;;;;5091957;28;20231;-83
2021/06/12 09:05:50;;;;;;;7.00;5.73;;;22.00;99.90;;;;;;5075703;28;20179;-85
2021/06/12 09:08:20;;;;;;;7.17;5.30;;;21.90;99.90;;;;;;5076740;28;20184;-86
2021/06/12 09:10:52;;;;;;;8.50;5.07;;;21.80;99.90;;;;;;5074997;28;20169;-85
2021/06/12 09:13:18;;;;;;;5.90;4.63;;;21.70;99.90;;;;;;5091560;28;20224;-85
2021/06/12 09:15:51;;;;;;;5.00;4.10;;;21.60;99.90;;;;;;5074983;28;20184;-86
2021/06/12 09:18:36;;;;;;;6.77;4.17;;;21.30;99.90;;;;;;5092361;28;20192;-80
2021/06/12 09:21:01;;;;;;;6.27;4.30;;;21.20;99.90;;;;;;5075187;28;20243;-83
2021/06/12 09:23:27;;;;;;;5.60;4.37;;;21.10;99.90;;;;;;5091799;28;20197;-82
2021/06/12 09:25:53;;;;;;;7.43;4.80;;;21.00;99.90;;;;;;5074885;28;20173;-82
2021/06/12 09:28:18;;;;;;;6.47;4.10;;;21.10;99.90;;;;;;5074730;28;20184;-83
2021/06/12 09:30:44;;;;;;;6.63;4.23;;;21.00;99.90;;;;;;5073522;28;20273;-81
2021/06/12 09:33:09;;;;;;;5.30;3.77;;;21.10;99.90;;;;;;5091391;28;20725;-82
2021/06/12 09:35:37;;;;;;;5.23;3.73;;;21.10;99.90;;;;;;5074564;28;20168;-80
2021/06/12 09:38:20;;;;;;;5.27;3.70;;;21.20;99.90;;;;;;5091442;28;20173;-83
2021/06/12 09:40:46;;;;;;;5.33;3.93;;;21.10;99.90;;;;;;5076756;28;20252;-81
2021/06/12 09:43:13;;;;;;;4.47;3.10;;;21.00;99.90;;;;;;5091214;28;20323;-82
2021/06/12 09:45:38;;;;;;;5.57;3.40;;;20.90;99.90;;;;;;5091205;28;20169;-84
2021/06/12 09:48:14;;;;;;;3.53;3.20;;;20.90;99.90;;;;;;5091282;28;20192;-82
2021/06/12 09:50:40;;;;;;;4.83;3.80;;;20.90;99.90;;;;;;5090934;28;20525;-82
2021/06/12 09:53:10;;;;;;;6.00;3.73;;;21.20;99.90;;;;;;5090874;28;20204;-80
2021/06/12 09:55:36;;;;;;;4.00;3.50;;;21.50;99.90;;;;;;5074086;28;20176;-80
2021/06/12 09:58:02;;;;;;;3.73;2.97;;;21.90;99.90;;;;;;5091058;28;20173;-80
2021/06/12 10:01:05;;;;;;;6.13;3.33;;;22.20;99.90;;;;;;5091075;28;20180;-81
2021/06/12 10:03:33;;;;;;;5.67;3.30;;;22.50;99.90;;;;;;5078863;28;20216;-78
2021/06/12 10:06:20;;;;;;;6.70;3.33;;;22.50;99.90;;;;;;5074499;28;20181;-78
2021/06/12 10:08:49;;;;;;;5.57;2.70;;;22.60;99.90;;;;;;5091042;28;20176;-77
2021/06/12 10:11:14;;;;;;;3.83;2.20;;;22.70;99.90;;;;;;5074641;28;20789;-79
2021/06/12 10:13:44;;;;;;;2.70;1.90;;;22.50;99.90;;;;;;5112217;22;20234;-77
2021/06/12 10:16:10;;;;;;;2.40;1.73;;;22.50;99.90;;;;;;5091368;28;20164;-77
2021/06/12 10:18:36;;;;;;;2.47;1.70;;;22.50;99.90;;;;;;5075572;28;20165;-77
2021/06/12 10:21:02;;;;;;;2.20;1.40;;;22.70;99.90;;;;;;5075915;28;20182;-78
2021/06/12 10:23:27;;;;;;;2.97;1.50;;;23.00;99.90;;;;;;5076421;28;20205;-77
2021/06/12 10:25:53;;;;;;;1.87;1.63;;;23.20;99.90;;;;;;5095439;28;20178;-77
2021/06/12 10:28:20;;;;;;;1.93;1.67;;;23.30;99.90;;;;;;5074480;28;20268;-78
2021/06/12 10:30:46;;;;;;;1.93;1.63;;;23.50;99.90;;;;;;5088490;28;20169;-78
2021/06/12 10:33:16;;;;;;;2.87;1.50;;;23.40;99.90;;;;;;5093759;28;20221;-78
2021/06/12 10:35:41;;;;;;;2.23;1.60;;;23.40;99.90;;;;;;5094540;28;20180;-77
2021/06/12 10:38:14;;;;;;;3.43;1.90;;;23.40;99.90;;;;;;5092376;28;20651;-79
2021/06/12 10:40:44;;;;;;;2.90;1.50;;;23.30;99.90;;;;;;5073393;28;20177;-77
2021/06/12 10:43:19;;;;;;;2.70;1.53;;;23.20;99.90;;;;;;5091276;28;20198;-75
2021/06/12 10:45:47;;;;;;;5.43;1.60;;;23.20;99.90;;;;;;5088598;28;20172;-74
2021/06/12 10:48:41;;;;;;;3.23;1.60;;;23.30;99.90;;;;;;5093661;28;20184;-74
2021/06/12 10:51:34;;;;;;;2.20;1.47;;;23.30;99.90;;;;;;5085466;28;20580;-74
2021/06/12 10:56:49;;;;;;;2.30;1.60;;;22.90;99.90;;;;;;5094841;28;20241;-74
2021/06/12 10:59:41;;;;;;;3.10;2.17;;;22.90;99.90;;;;;;5090916;28;20173;-74
2021/06/12 11:04:48;;;;;;;3.20;1.80;;;22.90;99.90;;;;;;5092101;28;20219;-74
2021/06/12 11:07:38;;;;;;;2.40;1.50;;;22.80;99.90;;;;;;5093574;28;20181;-74
2021/06/12 11:10:12;;;;;;;2.87;1.50;;;22.60;99.90;;;;;;5086313;28;20188;-74
2021/06/12 11:12:39;;;;;;;2.70;1.63;;;22.30;99.90;;;;;;5095436;28;20196;-75
2021/06/12 11:15:07;;;;;;;4.67;1.40;;;22.20;99.90;;;;;;5079916;28;20196;-75
2021/06/12 11:17:33;;;;;;;2.60;1.40;;;22.10;99.90;;;;;;5095480;28;20169;-75
2021/06/12 11:19:58;;;;;;;4.97;1.67;;;22.10;99.90;;;;;;5096024;28;20173;-75
2021/06/12 11:22:56;;;;;;;2.10;1.33;;;22.20;99.90;;;;;;5093760;28;20258;-75
2021/06/12 11:25:23;;;;;;;3.93;1.40;;;22.60;99.90;;;;;;5092915;28;20177;-75
2021/06/12 11:27:53;;;;;;;4.53;1.67;;;22.70;99.90;;;;;;5095337;28;20180;-74
2021/06/12 11:30:19;;;;;;;2.10;1.60;;;22.90;99.90;;;;;;5094146;28;20169;-74
2021/06/12 11:32:48;;;;;;;2.80;1.20;;;22.80;99.90;;;;;;5095447;28;20285;-74
2021/06/12 11:35:53;;;;;;;2.17;1.30;;;22.90;99.90;;;;;;5093929;28;20197;-75
2021/06/12 11:38:21;;;;;;;3.37;1.50;;;23.00;99.90;;;;;;5094694;28;20248;-76
2021/06/12 11:40:51;;;;;;;3.50;1.47;;;23.00;99.90;;;;;;5094321;28;20169;-75
2021/06/12 11:43:30;;;;;;;2.57;1.60;;;23.10;99.90;;;;;;5076943;28;20541;-75
2021/06/12 11:45:55;;;;;;;2.17;1.20;;;23.00;99.90;;;;;;5076918;28;20196;-77
2021/06/12 11:48:22;;;;;;;1.80;1.20;;;22.90;99.90;;;;;;5076675;28;20169;-76
2021/06/12 11:50:49;;;;;;;3.17;1.20;;;23.00;99.90;;;;;;5076040;28;20183;-76
2021/06/12 11:53:19;;;;;;;1.73;1.27;;;23.20;99.90;;;;;;5092961;28;20201;-74
2021/06/12 11:55:45;;;;;;;2.83;1.30;;;23.40;99.90;;;;;;5093487;28;20691;-75
2021/06/12 11:58:11;;;;;;;1.43;1.20;;;23.50;99.90;;;;;;5076699;28;20268;-75
2021/06/12 12:00:50;;;;;;;1.93;1.30;;;23.20;99.90;;;;;;5093253;28;20252;-75
2021/06/12 12:03:16;;;;;;;4.37;0.93;;;23.00;99.90;;;;;;5093381;28;20195;-75
2021/06/12 12:05:43;;;;;;;2.43;1.20;;;22.90;99.90;;;;;;5093296;28;20177;-75
2021/06/12 12:08:13;;;;;;;2.67;1.60;;;22.90;99.90;;;;;;5092888;28;20168;-75
2021/06/12 12:10:40;;;;;;;3.73;1.57;;;22.80;99.90;;;;;;5093248;28;20669;-75
2021/06/12 12:13:05;;;;;;;1.70;1.40;;;22.90;99.90;;;;;;5073615;28;20224;-75
2021/06/12 12:15:41;;;;;;;2.47;1.40;;;23.10;99.90;;;;;;5069585;28;20177;-76
2021/06/12 12:18:10;;;;;;;2.63;1.03;;;23.10;99.90;;;;;;5072361;28;20196;-74
2021/06/12 12:20:41;;;;;;;1.93;1.10;;;23.20;99.90;;;;;;5073725;28;20177;-75
2021/06/12 12:23:27;;;;;;;2.10;1.30;;;23.30;99.90;;;;;;5084937;28;20201;-75
2021/06/12 12:26:10;;;;;;;1.53;0.90;;;23.50;99.90;;;;;;5099428;28;20177;-74
2021/06/12 12:29:14;;;;;;;2.57;1.30;;;23.60;99.90;;;;;;5097696;28;20548;-73
2021/06/12 12:31:44;;;;;;;1.30;0.80;;;23.50;99.90;;;;;;5099009;28;20165;-74
2021/06/12 12:34:10;;;;;;;1.20;1.10;;;23.50;99.90;;;;;;5097434;28;20211;-73
2021/06/12 12:36:46;;;;;;;3.03;1.03;;;23.50;99.90;;;;;;5078513;28;20169;-74
2021/06/12 12:39:12;;;;;;;1.47;1.10;;;23.50;99.90;;;;;;5095325;28;20165;-74
2021/06/12 12:41:37;;;;;;;2.33;1.10;;;23.60;99.90;;;;;;5095296;28;20287;-74
2021/06/12 12:44:13;;;;;;;1.30;0.90;;;23.70;99.90;;;;;;5077774;28;20656;-74
2021/06/12 12:46:43;;;;;;;1.53;0.90;;;23.70;99.90;;;;;;5095198;28;20217;-74
2021/06/12 12:49:17;;;;;;;1.37;1.10;;;23.80;99.90;;;;;;5079024;28;20180;-76
2021/06/12 12:51:56;;;;;;;1.87;1.10;;;23.80;99.90;;;;;;5096613;28;20183;-73
2021/06/12 12:54:22;;;;;;;3.47;0.90;;;23.90;99.90;;;;;;5094208;28;20828;-74